Tropical Cyclones
[Index]
Main Index Home Page Stock Weather Photos Extreme Storms Discussion Storm News and Storm Chasing Reports Tropical Cyclones / Hurricanes / Typhoons Weather Data and Links Wild Fires / Bushfires Weather Observation Techniques Weather Picture Catalogue Tornado Pictures and Reports Stock Video Footage and DVDs for sale
Season 1997-1998 Tropical Cyclone TIFFANY Track Map
Season 1997-1998 Summaries: [BoM-AU] [JTWC-AU] [JTWC-SIO] [JTWC-SPAC] [JTWC-SH]
<<- Previous TC | BoM 1997-1998 Season | Next TC ->>

click for intensity scale information  Lat/long Grid: Show Hide

 Date Labels: Show Hide

Bureau of Meteorology Tropical Cyclone Data

Name: TIFFANY
Number: 811 / 199798_05

22 Jan 1998 10:00 UTC to 02 Feb 1998 10:00 UTC

    date/time    lat    long    hPa   cat  kts
1998-01-22 10   15.0   124.5   1001         25          
1998-01-22 22   16.0   125.0   1002         23          
1998-01-23 04   16.3   124.7   1002         23          
1998-01-23 10   16.4   124.3   1001         25          
1998-01-23 16   16.6   123.9   1001         25          
1998-01-23 22   16.7   123.4   1001         25          
1998-01-24 04   16.8   123.0   1001         25          
1998-01-24 10   16.9   122.6   1000         27          
1998-01-24 16   17.2   122.0    995    1    35          
1998-01-24 22   17.1   121.2    985    2    49          
1998-01-25 04   17.5   120.6    980    2    54          
1998-01-25 10   17.7   119.9    975    2    60          
1998-01-25 16   17.9   119.5    970    3    64          
1998-01-25 22   18.2   119.1    965    3    70          
1998-01-26 04   18.3   118.8    960    3    76          
1998-01-26 10   18.4   118.5    955    4    80          
1998-01-26 13   18.4   118.3    950    4    84          
1998-01-26 16   18.4   118.0    940    4    93          
1998-01-26 19   18.5   117.8    940    4    93          
1998-01-26 22   18.6   117.6    950    4    84          
1998-01-27 01   18.7   117.3    955    4    80          
1998-01-27 04   18.9   117.0    955    4    80          
1998-01-27 07   19.1   116.6    945    4    89          
1998-01-27 10   19.2   116.2    945    4    89          
1998-01-27 13   19.2   115.7    950    4    84          
1998-01-27 16   19.1   115.2    955    4    80          
1998-01-27 19   19.2   114.2    955    4    80          
1998-01-27 22   19.2   114.2    955    4    80          
1998-01-28 04   19.4   113.2    955    4    80          
1998-01-28 10   19.6   112.2    960    3    76          
1998-01-28 16   19.6   111.2    970    3    64          
1998-01-28 22   19.6   110.4    985    2    49          
1998-01-29 04   19.6   109.7    985    2    49          
1998-01-29 10   19.6   109.1    985    2    49          
1998-01-29 16   19.6   108.6    990    1    41          
1998-01-29 22   19.5   108.2    995    1    35          
1998-01-30 04   19.5   107.7    997         31          
1998-01-30 10   19.6   107.2   1000         27          
1998-01-30 16   19.6   106.8   1000         27          
1998-01-30 22   19.6   106.4   1002         23          
1998-01-31 04   19.5   105.9   1002         23          
1998-01-31 10   19.4   105.5   1002         23          
1998-01-31 16   19.2   105.2   1002         23          
1998-01-31 22   19.0   104.9   1004         21          
1998-02-01 04   18.7   104.6   1004         21          
1998-02-01 10   18.6   104.3   1004         21          
1998-02-02 04   17.7   100.7   1006                     
1998-02-02 10   17.6    99.8   1006                     
Winds are 10-min average.

Tropical cyclone tracks developed by Michael Bath using data from the Bureau of Meteorology and Google Maps.


[Australian Severe Weather index] [Copyright Notice] [Email Contacts] [Search This Site] [Privacy Policy]
Document: tropical_cyclone_tiffany.htm Updated: 30 May 2013